EDDH/HAM METAR and TAF weather

Enter ICAO airport designator
Example: see airport list
Station Type Date Time Source
EDDH METAR 2016/08/25 09:20 UTC NOAA

EDDH 250920Z 16008KT 110V190 CAVOK 25/17 Q1020 NOSIG


Station Type Date Time Source
EDDH Decoded METAR 2016/08/25 09:20 UTC NOAA

Hamburg-Fuhlsbuettel, Germany (EDDH) 53-38N 010-00E 15M
Aug 25, 2016 - 05:20 AM EDT / 2016.08.25 0920 UTC
Wind: from the SSE (160 degrees) at 9 MPH (8 KT) (direction variable):0
Visibility: greater than 7 mile(s):0
Temperature: 77 F (25 C)
Dew Point: 62 F (17 C)
Relative Humidity: 61%
Pressure (altimeter): 30.12 in. Hg (1020 hPa)
ob: EDDH 250920Z 16008KT 110V190 CAVOK 25/17 Q1020 NOSIG
cycle: 9

Station Type Date Time Source
EDDH TAF 2016/08/25 06:27 UTC NOAA

TAF EDDH 250500Z 2506/2612 13007KT CAVOK
TEMPO 2509/2517 15012KT
BECMG 2607/2609 20010KT